sensor_id;sensor_type;location;lat;lon;timestamp;pressure;altitude;pressure_sealevel;temperature;humidity
44138;BME280;29800;55.942;37.314;2023-04-29T00:02:09;99271.31;;;5.16;80.02
44138;BME280;29800;55.942;37.314;2023-04-29T00:04:36;99270.13;;;5.12;80.25
44138;BME280;29800;55.942;37.314;2023-04-29T00:07:02;99271.84;;;5.06;80.36
44138;BME280;29800;55.942;37.314;2023-04-29T00:09:28;99286.09;;;5.02;79.99
44138;BME280;29800;55.942;37.314;2023-04-29T00:11:55;99281.34;;;4.97;80.21
44138;BME280;29800;55.942;37.314;2023-04-29T00:14:23;99270.72;;;4.95;80.30
44138;BME280;29800;55.942;37.314;2023-04-29T00:16:49;99282.03;;;4.92;80.50
44138;BME280;29800;55.942;37.314;2023-04-29T00:19:16;99270.31;;;4.92;81.04
44138;BME280;29800;55.942;37.314;2023-04-29T00:21:43;99264.69;;;4.93;80.97
44138;BME280;29800;55.942;37.314;2023-04-29T00:24:10;99262.19;;;4.92;81.10
44138;BME280;29800;55.942;37.314;2023-04-29T00:26:36;99260.56;;;4.91;81.20
44138;BME280;29800;55.942;37.314;2023-04-29T00:29:03;99260.78;;;4.89;81.17
44138;BME280;29800;55.942;37.314;2023-04-29T00:31:29;99266.41;;;4.88;81.37
44138;BME280;29800;55.942;37.314;2023-04-29T00:33:58;99257.91;;;4.84;81.47
44138;BME280;29800;55.942;37.314;2023-04-29T00:36:24;99250.81;;;4.83;81.44
44138;BME280;29800;55.942;37.314;2023-04-29T00:38:51;99253.31;;;4.85;81.63
44138;BME280;29800;55.942;37.314;2023-04-29T00:41:17;99245.38;;;4.83;81.74
44138;BME280;29800;55.942;37.314;2023-04-29T00:43:50;99255.19;;;4.84;81.92
44138;BME280;29800;55.942;37.314;2023-04-29T00:46:37;99247.88;;;4.85;81.65
44138;BME280;29800;55.942;37.314;2023-04-29T00:49:04;99248.09;;;4.83;81.88
44138;BME280;29800;55.942;37.314;2023-04-29T00:51:30;99247.50;;;4.81;82.22
44138;BME280;29800;55.942;37.314;2023-04-29T00:53:58;99230.41;;;4.81;82.03
44138;BME280;29800;55.942;37.314;2023-04-29T00:56:25;99242.09;;;4.81;82.18
44138;BME280;29800;55.942;37.314;2023-04-29T00:58:56;99241.47;;;4.79;82.40
44138;BME280;29800;55.942;37.314;2023-04-29T01:01:23;99228.75;;;4.79;82.69
44138;BME280;29800;55.942;37.314;2023-04-29T01:03:50;99229.56;;;4.80;82.74
44138;BME280;29800;55.942;37.314;2023-04-29T01:09:16;99240.56;;;4.85;82.81
44138;BME280;29800;55.942;37.314;2023-04-29T01:12:05;99238.19;;;4.95;82.43
44138;BME280;29800;55.942;37.314;2023-04-29T01:14:34;99248.91;;;4.84;82.04
44138;BME280;29800;55.942;37.314;2023-04-29T01:17:11;99245.38;;;4.83;82.53
44138;BME280;29800;55.942;37.314;2023-04-29T01:19:47;99240.78;;;4.84;82.50
44138;BME280;29800;55.942;37.314;2023-04-29T01:22:16;99247.50;;;4.81;82.15
44138;BME280;29800;55.942;37.314;2023-04-29T01:24:45;99237.34;;;4.95;82.88
44138;BME280;29800;55.942;37.314;2023-04-29T01:30:17;99244.94;;;4.86;81.95
44138;BME280;29800;55.942;37.314;2023-04-29T01:32:57;99247.50;;;4.81;82.38
44138;BME280;29800;55.942;37.314;2023-04-29T01:38:35;99252.34;;;4.79;81.99
44138;BME280;29800;55.942;37.314;2023-04-29T01:41:10;99238.78;;;4.79;82.27
44138;BME280;29800;55.942;37.314;2023-04-29T01:43:39;99236.28;;;4.77;82.04
44138;BME280;29800;55.942;37.314;2023-04-29T01:46:34;99233.44;;;4.91;81.45
44138;BME280;29800;55.942;37.314;2023-04-29T01:49:01;99229.63;;;4.73;81.33
44138;BME280;29800;55.942;37.314;2023-04-29T01:51:28;99223.25;;;4.68;81.53
44138;BME280;29800;55.942;37.314;2023-04-29T01:53:55;99233.50;;;4.66;82.17
44138;BME280;29800;55.942;37.314;2023-04-29T01:56:22;99236.44;;;4.64;81.94
44138;BME280;29800;55.942;37.314;2023-04-29T01:59:00;99231.81;;;4.65;82.19
44138;BME280;29800;55.942;37.314;2023-04-29T02:01:35;99229.72;;;4.67;82.51
44138;BME280;29800;55.942;37.314;2023-04-29T02:04:02;99228.50;;;4.63;82.27
44138;BME280;29800;55.942;37.314;2023-04-29T02:06:29;99228.94;;;4.59;82.17
44138;BME280;29800;55.942;37.314;2023-04-29T02:09:00;99230.44;;;4.55;82.49
44138;BME280;29800;55.942;37.314;2023-04-29T02:11:27;99229.41;;;4.56;82.50
44138;BME280;29800;55.942;37.314;2023-04-29T02:13:56;99227.28;;;4.58;82.66
44138;BME280;29800;55.942;37.314;2023-04-29T02:16:22;99238.94;;;4.59;82.83
44138;BME280;29800;55.942;37.314;2023-04-29T02:18:54;99236.47;;;4.57;81.96
44138;BME280;29800;55.942;37.314;2023-04-29T02:21:21;99234.22;;;4.54;82.52
44138;BME280;29800;55.942;37.314;2023-04-29T02:23:47;99239.63;;;4.54;82.73
44138;BME280;29800;55.942;37.314;2023-04-29T02:26:14;99240.84;;;4.58;82.60
44138;BME280;29800;55.942;37.314;2023-04-29T02:28:40;99242.72;;;4.58;82.66
44138;BME280;29800;55.942;37.314;2023-04-29T02:31:07;99246.25;;;4.58;82.26
44138;BME280;29800;55.942;37.314;2023-04-29T02:33:34;99253.50;;;4.65;82.74
44138;BME280;29800;55.942;37.314;2023-04-29T02:36:01;99262.25;;;4.67;82.21
44138;BME280;29800;55.942;37.314;2023-04-29T02:38:27;99257.88;;;4.66;82.03
44138;BME280;29800;55.942;37.314;2023-04-29T02:40:54;99259.38;;;4.62;81.75
44138;BME280;29800;55.942;37.314;2023-04-29T02:43:21;99258.03;;;4.71;81.80
44138;BME280;29800;55.942;37.314;2023-04-29T02:45:48;99268.09;;;4.64;81.56
44138;BME280;29800;55.942;37.314;2023-04-29T02:48:14;99266.63;;;4.68;81.52
44138;BME280;29800;55.942;37.314;2023-04-29T02:50:41;99264.66;;;4.75;80.74
44138;BME280;29800;55.942;37.314;2023-04-29T02:53:07;99261.34;;;4.73;80.81
44138;BME280;29800;55.942;37.314;2023-04-29T02:55:34;99264.94;;;4.67;80.44
44138;BME280;29800;55.942;37.314;2023-04-29T02:58:06;99274.59;;;4.63;80.45
44138;BME280;29800;55.942;37.314;2023-04-29T03:00:32;99274.41;;;4.57;79.99
44138;BME280;29800;55.942;37.314;2023-04-29T03:02:59;99277.38;;;4.56;80.48
44138;BME280;29800;55.942;37.314;2023-04-29T03:05:26;99277.66;;;4.48;80.28
44138;BME280;29800;55.942;37.314;2023-04-29T03:07:53;99278.53;;;4.41;80.18
44138;BME280;29800;55.942;37.314;2023-04-29T03:10:20;99285.59;;;4.68;81.85
44138;BME280;29800;55.942;37.314;2023-04-29T03:12:46;99299.31;;;4.73;81.90
44138;BME280;29800;55.942;37.314;2023-04-29T03:15:14;99299.81;;;5.07;81.52
44138;BME280;29800;55.942;37.314;2023-04-29T03:17:43;99309.78;;;5.31;80.34
44138;BME280;29800;55.942;37.314;2023-04-29T03:20:13;99310.81;;;5.67;79.50
44138;BME280;29800;55.942;37.314;2023-04-29T03:22:42;99313.94;;;5.83;78.52
44138;BME280;29800;55.942;37.314;2023-04-29T03:25:09;99320.84;;;6.16;77.91
44138;BME280;29800;55.942;37.314;2023-04-29T03:27:38;99327.75;;;6.30;76.50
44138;BME280;29800;55.942;37.314;2023-04-29T03:30:05;99326.03;;;6.17;75.60
44138;BME280;29800;55.942;37.314;2023-04-29T03:32:34;99330.16;;;5.89;75.17
44138;BME280;29800;55.942;37.314;2023-04-29T03:35:00;99338.06;;;5.61;75.06
44138;BME280;29800;55.942;37.314;2023-04-29T03:37:39;99344.13;;;5.38;75.57
44138;BME280;29800;55.942;37.314;2023-04-29T03:40:26;99341.66;;;5.18;76.08
44138;BME280;29800;55.942;37.314;2023-04-29T03:42:52;99344.28;;;5.06;76.71
44138;BME280;29800;55.942;37.314;2023-04-29T03:45:19;99354.19;;;4.93;77.01
44138;BME280;29800;55.942;37.314;2023-04-29T03:47:46;99366.16;;;4.86;77.85
44138;BME280;29800;55.942;37.314;2023-04-29T03:50:12;99359.13;;;4.78;78.08
44138;BME280;29800;55.942;37.314;2023-04-29T03:52:40;99364.59;;;4.71;78.41
44138;BME280;29800;55.942;37.314;2023-04-29T03:55:10;99365.25;;;4.67;78.52
44138;BME280;29800;55.942;37.314;2023-04-29T03:57:38;99364.88;;;4.63;79.00
44138;BME280;29800;55.942;37.314;2023-04-29T04:00:05;99371.78;;;4.59;78.80
44138;BME280;29800;55.942;37.314;2023-04-29T04:02:40;99368.06;;;4.53;79.00
44138;BME280;29800;55.942;37.314;2023-04-29T04:05:08;99374.16;;;4.49;78.80
44138;BME280;29800;55.942;37.314;2023-04-29T04:07:36;99375.88;;;4.43;79.29
44138;BME280;29800;55.942;37.314;2023-04-29T04:10:32;99387.75;;;4.42;79.54
44138;BME280;29800;55.942;37.314;2023-04-29T04:13:01;99384.66;;;4.38;79.46
44138;BME280;29800;55.942;37.314;2023-04-29T04:15:28;99383.19;;;4.36;79.90
44138;BME280;29800;55.942;37.314;2023-04-29T04:17:59;99375.06;;;4.36;80.24
44138;BME280;29800;55.942;37.314;2023-04-29T04:20:27;99365.91;;;4.37;80.69
44138;BME280;29800;55.942;37.314;2023-04-29T04:22:53;99373.00;;;4.38;80.33
44138;BME280;29800;55.942;37.314;2023-04-29T04:25:24;99370.28;;;4.38;80.43
44138;BME280;29800;55.942;37.314;2023-04-29T04:27:53;99378.84;;;4.35;80.78
44138;BME280;29800;55.942;37.314;2023-04-29T04:30:45;99377.16;;;4.34;80.90
44138;BME280;29800;55.942;37.314;2023-04-29T04:33:13;99371.75;;;4.34;80.87
44138;BME280;29800;55.942;37.314;2023-04-29T04:35:45;99378.84;;;4.35;80.72
44138;BME280;29800;55.942;37.314;2023-04-29T04:38:11;99376.13;;;4.35;80.88
44138;BME280;29800;55.942;37.314;2023-04-29T04:40:41;99388.41;;;4.37;81.44
44138;BME280;29800;55.942;37.314;2023-04-29T04:43:29;99384.44;;;4.40;81.38
44138;BME280;29800;55.942;37.314;2023-04-29T04:45:55;99387.13;;;4.40;81.28
44138;BME280;29800;55.942;37.314;2023-04-29T04:48:22;99382.94;;;4.44;81.42
44138;BME280;29800;55.942;37.314;2023-04-29T04:50:50;99376.25;;;4.47;81.40
44138;BME280;29800;55.942;37.314;2023-04-29T04:53:16;99370.41;;;4.50;82.36
44138;BME280;29800;55.942;37.314;2023-04-29T04:55:49;99373.50;;;4.53;82.23
44138;BME280;29800;55.942;37.314;2023-04-29T04:58:15;99378.47;;;4.56;81.96
44138;BME280;29800;55.942;37.314;2023-04-29T05:00:45;99380.75;;;4.59;82.08
44138;BME280;29800;55.942;37.314;2023-04-29T05:03:11;99387.81;;;4.60;82.42
44138;BME280;29800;55.942;37.314;2023-04-29T05:05:38;99381.97;;;4.64;82.18
44138;BME280;29800;55.942;37.314;2023-04-29T05:08:05;99380.09;;;4.89;82.77
44138;BME280;29800;55.942;37.314;2023-04-29T05:10:40;99378.38;;;5.39;83.39
44138;BME280;29800;55.942;37.314;2023-04-29T05:13:07;99365.88;;;5.75;82.50
44138;BME280;29800;55.942;37.314;2023-04-29T05:15:34;99367.22;;;6.33;81.75
44138;BME280;29800;55.942;37.314;2023-04-29T05:18:02;99371.41;;;6.59;80.39
44138;BME280;29800;55.942;37.314;2023-04-29T05:20:29;99374.22;;;7.06;78.40
44138;BME280;29800;55.942;37.314;2023-04-29T05:22:59;99371.25;;;7.20;75.84
44138;BME280;29800;55.942;37.314;2023-04-29T05:25:26;99378.22;;;7.51;75.54
44138;BME280;29800;55.942;37.314;2023-04-29T05:27:55;99374.03;;;7.72;74.68
44138;BME280;29800;55.942;37.314;2023-04-29T05:30:22;99376.03;;;7.77;73.46
44138;BME280;29800;55.942;37.314;2023-04-29T05:32:48;99377.38;;;8.03;72.34
44138;BME280;29800;55.942;37.314;2023-04-29T05:35:17;99380.59;;;8.00;71.79
44138;BME280;29800;55.942;37.314;2023-04-29T05:37:44;99378.78;;;8.17;71.76
44138;BME280;29800;55.942;37.314;2023-04-29T05:40:36;99370.78;;;8.27;71.68
44138;BME280;29800;55.942;37.314;2023-04-29T05:43:23;99380.78;;;8.22;70.50
44138;BME280;29800;55.942;37.314;2023-04-29T05:45:51;99387.50;;;7.90;70.13
44138;BME280;29800;55.942;37.314;2023-04-29T05:48:18;99386.03;;;7.59;70.64
44138;BME280;29800;55.942;37.314;2023-04-29T05:50:44;99394.34;;;7.29;70.68
44138;BME280;29800;55.942;37.314;2023-04-29T05:53:12;99389.84;;;7.11;72.06
44138;BME280;29800;55.942;37.314;2023-04-29T05:55:40;99387.00;;;6.94;72.59
44138;BME280;29800;55.942;37.314;2023-04-29T05:58:11;99392.88;;;6.79;72.79
44138;BME280;29800;55.942;37.314;2023-04-29T06:00:37;99400.53;;;6.70;73.51
44138;BME280;29800;55.942;37.314;2023-04-29T06:03:11;99403.81;;;6.60;73.75
44138;BME280;29800;55.942;37.314;2023-04-29T06:05:38;99402.88;;;6.55;74.20
44138;BME280;29800;55.942;37.314;2023-04-29T06:08:16;99404.72;;;6.42;73.25
44138;BME280;29800;55.942;37.314;2023-04-29T06:10:46;99417.34;;;6.37;74.09
44138;BME280;29800;55.942;37.314;2023-04-29T06:13:13;99407.75;;;6.34;74.25
44138;BME280;29800;55.942;37.314;2023-04-29T06:15:39;99418.63;;;6.34;74.41
44138;BME280;29800;55.942;37.314;2023-04-29T06:18:05;99428.53;;;6.29;74.00
44138;BME280;29800;55.942;37.314;2023-04-29T06:20:32;99416.84;;;6.28;74.34
44138;BME280;29800;55.942;37.314;2023-04-29T06:22:58;99429.50;;;6.34;75.41
44138;BME280;29800;55.942;37.314;2023-04-29T06:25:25;99422.56;;;6.38;75.81
44138;BME280;29800;55.942;37.314;2023-04-29T06:27:51;99416.66;;;6.41;75.24
44138;BME280;29800;55.942;37.314;2023-04-29T06:30:22;99426.00;;;6.46;75.23
44138;BME280;29800;55.942;37.314;2023-04-29T06:32:48;99431.22;;;6.47;75.66
44138;BME280;29800;55.942;37.314;2023-04-29T06:35:15;99429.94;;;6.50;75.41
44138;BME280;29800;55.942;37.314;2023-04-29T06:37:59;99433.69;;;6.49;74.93
44138;BME280;29800;55.942;37.314;2023-04-29T06:40:55;99438.53;;;6.47;74.07
44138;BME280;29800;55.942;37.314;2023-04-29T06:43:31;99431.44;;;6.46;74.84
44138;BME280;29800;55.942;37.314;2023-04-29T06:46:18;99437.00;;;6.51;75.72
44138;BME280;29800;55.942;37.314;2023-04-29T06:49:01;99436.78;;;6.52;75.57
44138;BME280;29800;55.942;37.314;2023-04-29T06:51:27;99440.13;;;6.54;75.58
44138;BME280;29800;55.942;37.314;2023-04-29T06:53:54;99443.78;;;6.60;76.23
44138;BME280;29800;55.942;37.314;2023-04-29T06:56:20;99445.47;;;6.61;75.70
44138;BME280;29800;55.942;37.314;2023-04-29T06:58:47;99455.03;;;6.63;75.84
44138;BME280;29800;55.942;37.314;2023-04-29T07:01:13;99450.97;;;6.85;75.86
44138;BME280;29800;55.942;37.314;2023-04-29T07:03:42;99464.72;;;7.02;75.70
44138;BME280;29800;55.942;37.314;2023-04-29T07:06:09;99461.13;;;7.31;75.52
44138;BME280;29800;55.942;37.314;2023-04-29T07:08:36;99467.03;;;7.52;74.79
44138;BME280;29800;55.942;37.314;2023-04-29T07:11:02;99459.31;;;7.84;74.37
44138;BME280;29800;55.942;37.314;2023-04-29T07:13:29;99470.88;;;8.03;73.43
44138;BME280;29800;55.942;37.314;2023-04-29T07:15:56;99476.16;;;8.34;72.37
44138;BME280;29800;55.942;37.314;2023-04-29T07:18:22;99466.75;;;8.53;71.94
44138;BME280;29800;55.942;37.314;2023-04-29T07:20:49;99466.41;;;8.78;71.48
44138;BME280;29800;55.942;37.314;2023-04-29T07:23:17;99465.88;;;9.10;69.81
44138;BME280;29800;55.942;37.314;2023-04-29T07:25:45;99474.00;;;9.22;68.66
44138;BME280;29800;55.942;37.314;2023-04-29T07:28:12;99476.31;;;9.30;67.83
44138;BME280;29800;55.942;37.314;2023-04-29T07:30:38;99472.66;;;9.25;67.12
44138;BME280;29800;55.942;37.314;2023-04-29T07:33:04;99480.09;;;9.29;67.06
44138;BME280;29800;55.942;37.314;2023-04-29T07:35:31;99487.22;;;9.13;65.47
44138;BME280;29800;55.942;37.314;2023-04-29T07:37:58;99477.13;;;8.97;66.10
44138;BME280;29800;55.942;37.314;2023-04-29T07:40:24;99489.41;;;8.82;65.23
44138;BME280;29800;55.942;37.314;2023-04-29T07:42:53;99476.59;;;8.83;65.57
44138;BME280;29800;55.942;37.314;2023-04-29T07:45:19;99484.28;;;8.86;65.96
44138;BME280;29800;55.942;37.314;2023-04-29T07:47:46;99489.34;;;8.94;67.10
44138;BME280;29800;55.942;37.314;2023-04-29T07:50:12;99490.00;;;9.01;67.09
44138;BME280;29800;55.942;37.314;2023-04-29T07:52:39;99481.91;;;9.07;64.96
44138;BME280;29800;55.942;37.314;2023-04-29T07:55:05;99484.19;;;9.27;65.37
44138;BME280;29800;55.942;37.314;2023-04-29T07:57:32;99488.91;;;9.31;64.27
44138;BME280;29800;55.942;37.314;2023-04-29T07:59:59;99491.78;;;9.42;64.35
44138;BME280;29800;55.942;37.314;2023-04-29T08:02:25;99493.34;;;9.37;63.23
44138;BME280;29800;55.942;37.314;2023-04-29T08:04:52;99503.53;;;9.25;63.06
44138;BME280;29800;55.942;37.314;2023-04-29T08:07:20;99508.81;;;9.15;63.86
44138;BME280;29800;55.942;37.314;2023-04-29T08:09:47;99512.22;;;9.05;62.94
44138;BME280;29800;55.942;37.314;2023-04-29T08:12:13;99516.72;;;8.99;62.87
44138;BME280;29800;55.942;37.314;2023-04-29T08:14:40;99519.94;;;8.96;63.76
44138;BME280;29800;55.942;37.314;2023-04-29T08:17:06;99515.47;;;8.90;63.52
44138;BME280;29800;55.942;37.314;2023-04-29T08:19:33;99524.03;;;8.82;63.43
44138;BME280;29800;55.942;37.314;2023-04-29T08:22:00;99527.16;;;8.74;64.94
44138;BME280;29800;55.942;37.314;2023-04-29T08:24:27;99526.19;;;8.80;64.68
44138;BME280;29800;55.942;37.314;2023-04-29T08:26:54;99523.47;;;9.09;65.30
44138;BME280;29800;55.942;37.314;2023-04-29T08:29:20;99513.72;;;9.47;64.90
44138;BME280;29800;55.942;37.314;2023-04-29T08:31:47;99520.50;;;9.78;62.47
44138;BME280;29800;55.942;37.314;2023-04-29T08:34:16;99507.09;;;10.16;60.60
44138;BME280;29800;55.942;37.314;2023-04-29T08:36:43;99520.09;;;10.47;59.44
44138;BME280;29800;55.942;37.314;2023-04-29T08:39:09;99523.91;;;10.69;60.03
44138;BME280;29800;55.942;37.314;2023-04-29T08:41:36;99522.53;;;10.66;56.71
44138;BME280;29800;55.942;37.314;2023-04-29T08:44:03;99519.72;;;10.61;57.07
44138;BME280;29800;55.942;37.314;2023-04-29T08:46:29;99514.38;;;10.49;57.45
44138;BME280;29800;55.942;37.314;2023-04-29T08:48:56;99524.63;;;10.59;58.24
44138;BME280;29800;55.942;37.314;2023-04-29T08:51:23;99528.16;;;10.81;56.19
44138;BME280;29800;55.942;37.314;2023-04-29T08:53:50;99530.53;;;11.00;54.01
44138;BME280;29800;55.942;37.314;2023-04-29T08:56:17;99520.16;;;11.29;52.74
44138;BME280;29800;55.942;37.314;2023-04-29T08:58:49;99516.38;;;11.68;54.35
44138;BME280;29800;55.942;37.314;2023-04-29T09:01:27;99511.13;;;11.99;54.99
44138;BME280;29800;55.942;37.314;2023-04-29T09:04:20;99511.97;;;12.04;52.52
44138;BME280;29800;55.942;37.314;2023-04-29T09:06:52;99521.50;;;11.97;50.09
44138;BME280;29800;55.942;37.314;2023-04-29T09:09:21;99526.91;;;11.86;48.84
44138;BME280;29800;55.942;37.314;2023-04-29T09:11:49;99530.59;;;11.97;48.29
44138;BME280;29800;55.942;37.314;2023-04-29T09:14:16;99522.13;;;12.04;47.12
44138;BME280;29800;55.942;37.314;2023-04-29T09:16:46;99527.22;;;12.32;47.32
44138;BME280;29800;55.942;37.314;2023-04-29T09:19:29;99528.44;;;12.62;47.34
44138;BME280;29800;55.942;37.314;2023-04-29T09:21:57;99530.91;;;12.64;46.80
44138;BME280;29800;55.942;37.314;2023-04-29T09:24:25;99532.78;;;12.48;46.49
44138;BME280;29800;55.942;37.314;2023-04-29T09:26:55;99529.94;;;12.32;46.30
44138;BME280;29800;55.942;37.314;2023-04-29T09:29:22;99534.63;;;12.32;46.93
44138;BME280;29800;55.942;37.314;2023-04-29T09:31:49;99541.03;;;12.48;47.23
44138;BME280;29800;55.942;37.314;2023-04-29T09:34:30;99542.22;;;12.78;47.71
44138;BME280;29800;55.942;37.314;2023-04-29T09:36:57;99540.06;;;12.90;45.12
44138;BME280;29800;55.942;37.314;2023-04-29T09:39:24;99539.50;;;12.88;43.14
44138;BME280;29800;55.942;37.314;2023-04-29T09:44:32;99547.09;;;12.60;41.53
44138;BME280;29800;55.942;37.314;2023-04-29T09:47:03;99553.81;;;12.27;42.43
44138;BME280;29800;55.942;37.314;2023-04-29T09:49:41;99557.56;;;12.10;43.90
44138;BME280;29800;55.942;37.314;2023-04-29T09:52:13;99565.66;;;11.95;44.80
44138;BME280;29800;55.942;37.314;2023-04-29T09:54:42;99560.16;;;11.95;45.86
44138;BME280;29800;55.942;37.314;2023-04-29T09:57:11;99572.31;;;12.04;44.65
44138;BME280;29800;55.942;37.314;2023-04-29T09:59:39;99560.94;;;12.28;46.07
44138;BME280;29800;55.942;37.314;2023-04-29T10:02:15;99565.47;;;12.55;45.35
44138;BME280;29800;55.942;37.314;2023-04-29T10:04:49;99562.53;;;12.77;43.23
44138;BME280;29800;55.942;37.314;2023-04-29T10:07:18;99558.75;;;12.98;40.34
44138;BME280;29800;55.942;37.314;2023-04-29T10:09:46;99563.25;;;13.25;40.19
44138;BME280;29800;55.942;37.314;2023-04-29T10:12:18;99569.34;;;13.58;40.90
44138;BME280;29800;55.942;37.314;2023-04-29T10:17:48;99564.66;;;14.05;39.09
44138;BME280;29800;55.942;37.314;2023-04-29T10:20:24;99568.22;;;13.95;39.08
44138;BME280;29800;55.942;37.314;2023-04-29T10:22:53;99573.47;;;13.66;37.92
44138;BME280;29800;55.942;37.314;2023-04-29T10:25:22;99581.72;;;13.40;37.91
44138;BME280;29800;55.942;37.314;2023-04-29T10:27:50;99581.88;;;13.08;37.60
44138;BME280;29800;55.942;37.314;2023-04-29T10:30:20;99583.47;;;12.93;38.40
44138;BME280;29800;55.942;37.314;2023-04-29T10:32:49;99581.56;;;12.94;37.93
44138;BME280;29800;55.942;37.314;2023-04-29T10:35:18;99581.88;;;13.02;38.30
44138;BME280;29800;55.942;37.314;2023-04-29T10:37:46;99587.44;;;13.28;37.24
44138;BME280;29800;55.942;37.314;2023-04-29T10:40:16;99579.22;;;13.38;36.29
44138;BME280;29800;55.942;37.314;2023-04-29T10:42:48;99590.81;;;13.76;37.28
44138;BME280;29800;55.942;37.314;2023-04-29T10:45:24;99594.63;;;13.81;36.07
44138;BME280;29800;55.942;37.314;2023-04-29T10:50:59;99600.72;;;13.77;36.84
44138;BME280;29800;55.942;37.314;2023-04-29T10:53:27;99607.31;;;13.82;36.64
44138;BME280;29800;55.942;37.314;2023-04-29T10:55:57;99596.84;;;14.04;35.14
44138;BME280;29800;55.942;37.314;2023-04-29T10:58:45;99605.09;;;14.30;35.40
44138;BME280;29800;55.942;37.314;2023-04-29T11:01:14;99599.78;;;14.54;35.18
44138;BME280;29800;55.942;37.314;2023-04-29T11:03:53;99596.13;;;14.84;34.27
44138;BME280;29800;55.942;37.314;2023-04-29T11:12:07;99596.16;;;15.79;32.46
44138;BME280;29800;55.942;37.314;2023-04-29T11:14:41;99598.78;;;15.94;32.24
44138;BME280;29800;55.942;37.314;2023-04-29T11:17:13;99601.78;;;16.27;35.49
44138;BME280;29800;55.942;37.314;2023-04-29T11:19:49;99597.53;;;16.11;32.07
44138;BME280;29800;55.942;37.314;2023-04-29T11:27:18;99612.19;;;15.67;32.75
44138;BME280;29800;55.942;37.314;2023-04-29T11:29:45;99616.19;;;15.50;31.83
44138;BME280;29800;55.942;37.314;2023-04-29T11:32:15;99622.09;;;15.33;32.85
44138;BME280;29800;55.942;37.314;2023-04-29T11:34:41;99619.88;;;15.30;32.79
44138;BME280;29800;55.942;37.314;2023-04-29T11:37:08;99615.22;;;15.25;32.88
44138;BME280;29800;55.942;37.314;2023-04-29T11:39:35;99620.81;;;15.15;33.08
44138;BME280;29800;55.942;37.314;2023-04-29T11:42:05;99624.44;;;15.05;32.15
44138;BME280;29800;55.942;37.314;2023-04-29T11:44:33;99615.25;;;15.20;37.66
44138;BME280;29800;55.942;37.314;2023-04-29T11:47:07;99620.25;;;15.18;37.83
44138;BME280;29800;55.942;37.314;2023-04-29T11:49:34;99623.59;;;15.00;34.03
44138;BME280;29800;55.942;37.314;2023-04-29T11:52:02;99618.19;;;14.84;31.62
44138;BME280;29800;55.942;37.314;2023-04-29T11:54:29;99626.47;;;14.79;32.75
44138;BME280;29800;55.942;37.314;2023-04-29T11:56:57;99624.81;;;14.78;32.05
44138;BME280;29800;55.942;37.314;2023-04-29T11:59:23;99631.16;;;14.74;33.33
44138;BME280;29800;55.942;37.314;2023-04-29T12:01:50;99631.44;;;14.67;32.24
44138;BME280;29800;55.942;37.314;2023-04-29T12:04:17;99622.91;;;14.68;34.02
44138;BME280;29800;55.942;37.314;2023-04-29T12:06:45;99619.34;;;14.68;33.63
44138;BME280;29800;55.942;37.314;2023-04-29T12:09:11;99623.16;;;14.72;33.87
44138;BME280;29800;55.942;37.314;2023-04-29T12:11:41;99610.22;;;14.78;32.33
44138;BME280;29800;55.942;37.314;2023-04-29T12:14:08;99604.69;;;14.78;31.65
44138;BME280;29800;55.942;37.314;2023-04-29T12:16:34;99607.47;;;14.78;32.60
44138;BME280;29800;55.942;37.314;2023-04-29T12:19:01;99614.84;;;14.87;33.36
44138;BME280;29800;55.942;37.314;2023-04-29T12:21:28;99603.84;;;14.77;31.93
44138;BME280;29800;55.942;37.314;2023-04-29T12:23:58;99620.97;;;14.64;32.66
44138;BME280;29800;55.942;37.314;2023-04-29T12:26:29;99615.50;;;14.43;31.95
44138;BME280;29800;55.942;37.314;2023-04-29T12:28:57;99613.91;;;14.22;31.38
44138;BME280;29800;55.942;37.314;2023-04-29T12:31:33;99611.97;;;14.17;31.50
44138;BME280;29800;55.942;37.314;2023-04-29T12:34:00;99616.09;;;14.20;32.64
44138;BME280;29800;55.942;37.314;2023-04-29T12:36:28;99610.59;;;14.30;33.61
44138;BME280;29800;55.942;37.314;2023-04-29T12:38:54;99605.59;;;14.42;32.47
44138;BME280;29800;55.942;37.314;2023-04-29T12:41:43;99598.66;;;14.65;33.29
44138;BME280;29800;55.942;37.314;2023-04-29T12:44:10;99603.81;;;14.93;37.60
44138;BME280;29800;55.942;37.314;2023-04-29T12:46:38;99613.69;;;15.04;30.90
44138;BME280;29800;55.942;37.314;2023-04-29T12:49:06;99601.97;;;15.28;31.49
44138;BME280;29800;55.942;37.314;2023-04-29T12:51:34;99608.53;;;15.37;31.30
44138;BME280;29800;55.942;37.314;2023-04-29T12:54:02;99606.28;;;15.44;30.07
44138;BME280;29800;55.942;37.314;2023-04-29T12:56:32;99610.38;;;15.52;28.51
44138;BME280;29800;55.942;37.314;2023-04-29T12:59:06;99611.44;;;15.61;28.68
44138;BME280;29800;55.942;37.314;2023-04-29T13:01:34;99606.97;;;15.65;28.64
44138;BME280;29800;55.942;37.314;2023-04-29T13:04:00;99610.53;;;15.76;29.29
44138;BME280;29800;55.942;37.314;2023-04-29T13:06:27;99612.72;;;15.79;28.22
44138;BME280;29800;55.942;37.314;2023-04-29T13:08:53;99608.81;;;15.80;28.41
44138;BME280;29800;55.942;37.314;2023-04-29T13:11:20;99608.25;;;15.83;27.42
44138;BME280;29800;55.942;37.314;2023-04-29T13:13:46;99601.63;;;15.84;27.99
44138;BME280;29800;55.942;37.314;2023-04-29T13:16:13;99609.00;;;15.94;29.18
44138;BME280;29800;55.942;37.314;2023-04-29T13:18:39;99610.88;;;15.98;28.80
44138;BME280;29800;55.942;37.314;2023-04-29T13:21:06;99611.47;;;16.25;33.12
44138;BME280;29800;55.942;37.314;2023-04-29T13:23:33;99618.63;;;16.26;30.61
44138;BME280;29800;55.942;37.314;2023-04-29T13:25:59;99618.16;;;16.48;30.79
44138;BME280;29800;55.942;37.314;2023-04-29T13:28:26;99618.75;;;16.40;29.48
44138;BME280;29800;55.942;37.314;2023-04-29T13:30:52;99619.50;;;16.21;29.40
44138;BME280;29800;55.942;37.314;2023-04-29T13:33:19;99616.34;;;16.33;33.21
44138;BME280;29800;55.942;37.314;2023-04-29T13:35:47;99620.63;;;16.20;29.66
44138;BME280;29800;55.942;37.314;2023-04-29T13:38:14;99610.75;;;16.14;29.18